createdAt,value
2018-05-10T00:01:50.759Z,68.47
2018-05-10T00:04:20.351Z,68.78
2018-05-10T00:06:48.701Z,68.51
2018-05-10T00:09:16.396Z,68.38
2018-05-10T00:11:46.759Z,68.32
2018-05-10T00:14:17.741Z,68.36
2018-05-10T00:16:46.215Z,68.67
2018-05-10T00:19:13.892Z,69.26
2018-05-10T00:21:41.659Z,68.98
2018-05-10T00:24:12.805Z,68.98
2018-05-10T00:26:40.653Z,69.15
2018-05-10T00:29:09.961Z,69.37
2018-05-10T00:31:39.351Z,69.11
2018-05-10T00:34:07.149Z,69.63
2018-05-10T00:36:34.814Z,69.85
2018-05-10T00:39:06.847Z,69.64
2018-05-10T00:41:36.188Z,69.10
2018-05-10T00:44:04.079Z,68.75
2018-05-10T00:46:31.613Z,67.96
2018-05-10T00:48:59.155Z,67.98
2018-05-10T00:51:26.659Z,68.55
2018-05-10T00:53:54.151Z,68.82
2018-05-10T00:56:21.634Z,68.86
2018-05-10T00:58:49.163Z,69.16
2018-05-10T01:01:16.640Z,69.56
2018-05-10T01:03:44.129Z,69.41
2018-05-10T01:06:17.676Z,69.44
2018-05-10T01:08:45.155Z,69.14
2018-05-10T01:11:12.669Z,69.30
2018-05-10T01:13:40.159Z,69.74
2018-05-10T01:29:32.454Z,70.69
2018-05-10T01:31:59.934Z,71.05
2018-05-10T01:34:27.440Z,71.10
2018-05-10T01:36:54.933Z,70.79
2018-05-10T01:39:22.487Z,71.05
2018-05-10T01:41:56.088Z,70.90
2018-05-10T01:44:23.654Z,70.79
2018-05-10T01:46:51.154Z,71.07
2018-05-10T01:49:18.642Z,70.88
2018-05-10T01:51:46.136Z,71.25
2018-05-10T01:54:19.466Z,71.20
2018-05-10T01:56:47.076Z,71.67
2018-05-10T01:59:14.640Z,71.01
2018-05-10T02:01:42.155Z,71.33
2018-05-10T02:04:09.756Z,71.49
2018-05-10T02:06:37.231Z,71.38
2018-05-10T02:09:04.735Z,71.25
2018-05-10T02:11:32.223Z,71.58
2018-05-10T02:13:59.787Z,71.78
2018-05-10T02:16:27.267Z,71.93
2018-05-10T02:18:54.767Z,71.83
2018-05-10T02:21:22.260Z,71.68
2018-05-10T02:23:49.773Z,71.99
2018-05-10T02:26:17.254Z,71.96
2018-05-10T02:28:48.391Z,72.30
2018-05-10T02:31:15.980Z,72.23
2018-05-10T02:33:43.491Z,72.52
2018-05-10T02:36:11.091Z,72.67
2018-05-10T02:38:38.586Z,72.92
2018-05-10T02:41:09.188Z,72.99
2018-05-10T02:43:36.660Z,73.11
2018-05-10T02:46:05.981Z,73.44
2018-05-10T02:48:33.452Z,73.45
2018-05-10T02:51:01.133Z,73.67
2018-05-10T02:53:28.644Z,73.49
2018-05-10T02:55:56.144Z,73.90
2018-05-10T02:58:23.736Z,73.91
2018-05-10T03:00:51.214Z,74.02
2018-05-10T03:03:18.766Z,74.06
2018-05-10T03:05:46.252Z,74.20
2018-05-10T03:08:13.774Z,74.10
2018-05-10T03:10:41.274Z,73.74
2018-05-10T03:13:18.444Z,73.79
2018-05-10T03:15:45.914Z,73.58
2018-05-10T03:18:13.433Z,73.76
2018-05-10T03:20:41.872Z,73.87
2018-05-10T03:23:09.383Z,73.90
2018-05-10T03:25:36.896Z,73.98
2018-05-10T03:28:04.396Z,74.14
2018-05-10T03:30:31.917Z,74.48
2018-05-10T03:33:01.228Z,74.48
2018-05-10T03:35:28.731Z,74.60
2018-05-10T03:37:56.211Z,74.50
2018-05-10T03:40:23.731Z,74.73
2018-05-10T03:42:51.245Z,74.70
2018-05-10T03:45:18.777Z,74.60
2018-05-10T03:47:46.278Z,74.72
2018-05-10T03:50:13.828Z,75.17
2018-05-10T03:52:41.334Z,74.97
2018-05-10T03:55:08.936Z,75.31
2018-05-10T03:57:36.452Z,75.26
2018-05-10T04:00:03.937Z,75.06
2018-05-10T04:02:43.260Z,75.59
2018-05-10T04:05:18.566Z,75.90
2018-05-10T04:07:58.133Z,76.12
2018-05-10T04:10:43.053Z,76.44
2018-05-10T04:13:10.557Z,76.53
2018-05-10T04:15:38.059Z,76.64
2018-05-10T04:18:05.605Z,76.46
2018-05-10T04:20:33.086Z,76.45
2018-05-10T04:23:00.595Z,76.34
2018-05-10T04:25:28.080Z,76.11
2018-05-10T04:27:59.455Z,76.30
2018-05-10T04:30:27.029Z,75.87
2018-05-10T04:32:54.525Z,75.84
2018-05-10T04:35:22.033Z,75.49
2018-05-10T04:37:49.535Z,75.52
2018-05-10T04:40:20.235Z,75.28
2018-05-10T04:42:47.723Z,74.78
2018-05-10T04:45:19.147Z,74.84
2018-05-10T04:47:46.635Z,74.55
2018-05-10T04:50:14.158Z,74.80
2018-05-10T04:52:41.645Z,74.70
2018-05-10T04:55:09.135Z,74.94
2018-05-10T04:57:36.637Z,74.63
2018-05-10T05:00:04.233Z,74.51
2018-05-10T05:02:31.753Z,74.71
2018-05-10T05:04:59.311Z,75.08
2018-05-10T05:07:26.813Z,74.67
2018-05-10T05:09:54.321Z,74.86
2018-05-10T05:12:21.831Z,74.63
2018-05-10T05:14:49.335Z,74.18
2018-05-10T05:17:18.637Z,74.01
2018-05-10T05:19:46.201Z,73.61
2018-05-10T05:22:13.708Z,72.90
2018-05-10T05:24:41.216Z,73.17
2018-05-10T05:27:08.722Z,72.54
2018-05-10T05:29:36.341Z,71.93
2018-05-10T05:32:03.841Z,71.71
2018-05-10T05:34:31.343Z,72.21
2018-05-10T05:36:58.874Z,71.96
2018-05-10T05:39:26.375Z,72.08
2018-05-10T05:41:53.933Z,72.15
2018-05-10T05:44:23.815Z,72.37
2018-05-10T05:46:51.330Z,72.69
2018-05-10T05:51:54.524Z,72.59
2018-05-10T05:54:27.870Z,72.40
2018-05-10T05:56:55.474Z,72.35
2018-05-10T05:59:22.967Z,72.05
2018-05-10T06:01:50.467Z,72.34
2018-05-10T06:04:17.991Z,71.45
2018-05-10T06:06:45.477Z,71.25
2018-05-10T06:09:13.009Z,71.16
2018-05-10T06:11:40.519Z,70.36
2018-05-10T06:14:08.042Z,70.50
2018-05-10T06:16:35.532Z,69.44
2018-05-10T06:19:03.043Z,69.32
2018-05-10T06:21:30.563Z,67.72
2018-05-10T06:23:58.064Z,67.60
2018-05-10T06:26:25.573Z,67.62
2018-05-10T06:28:53.066Z,67.89
2018-05-10T06:31:20.600Z,67.53
2018-05-10T06:33:48.083Z,67.46
2018-05-10T06:36:15.703Z,67.20
2018-05-10T06:38:44.061Z,67.13
2018-05-10T06:41:11.579Z,66.15
2018-05-10T06:43:39.919Z,66.76
2018-05-10T06:46:07.480Z,65.93
2018-05-10T06:48:34.984Z,65.26
2018-05-10T06:51:02.539Z,65.58
2018-05-10T06:53:30.079Z,64.71
2018-05-10T06:55:57.586Z,63.76
2018-05-10T06:58:25.121Z,63.39
2018-05-10T07:00:52.612Z,64.20
2018-05-10T07:03:20.197Z,64.53
2018-05-10T07:05:47.671Z,64.92
2018-05-10T07:08:24.844Z,64.29
2018-05-10T07:10:52.348Z,64.18
2018-05-10T07:13:19.829Z,63.32
2018-05-10T07:15:47.383Z,63.72
2018-05-10T07:18:14.914Z,62.69
2018-05-10T07:20:42.494Z,61.95
2018-05-10T07:23:16.189Z,62.72
2018-05-10T07:25:43.697Z,61.75
2018-05-10T07:28:11.249Z,60.95
2018-05-10T07:30:39.492Z,60.84
2018-05-10T07:33:07.000Z,61.08
2018-05-10T07:35:34.524Z,61.08
2018-05-10T07:38:02.022Z,60.99
2018-05-10T07:40:29.552Z,60.80
2018-05-10T07:42:57.092Z,60.28
2018-05-10T07:45:24.594Z,60.42
2018-05-10T07:47:52.136Z,59.81
2018-05-10T07:50:19.650Z,59.51
2018-05-10T07:52:47.354Z,60.43
2018-05-10T07:55:21.296Z,59.25
2018-05-10T07:57:52.137Z,59.56
2018-05-10T08:00:20.737Z,57.81
2018-05-10T08:02:48.256Z,58.67
2018-05-10T08:05:15.797Z,58.15
2018-05-10T08:07:43.300Z,58.24
2018-05-10T08:10:10.858Z,58.56
2018-05-10T08:12:38.371Z,57.52
2018-05-10T08:15:05.898Z,57.60
2018-05-10T08:17:33.385Z,56.91
2018-05-10T08:20:00.949Z,57.74
2018-05-10T08:22:28.456Z,58.65
2018-05-10T08:24:55.993Z,58.15
2018-05-10T08:27:23.507Z,56.42
2018-05-10T08:29:51.092Z,57.58
2018-05-10T08:32:31.569Z,56.70
2018-05-10T08:34:59.105Z,55.23
2018-05-10T08:37:26.629Z,55.69
2018-05-10T08:39:54.225Z,55.44
2018-05-10T08:42:21.786Z,54.85
2018-05-10T08:44:49.276Z,55.26
2018-05-10T08:47:16.804Z,54.03
2018-05-10T08:49:44.351Z,54.06
2018-05-10T08:52:11.918Z,54.37
2018-05-10T08:54:39.448Z,53.93
2018-05-10T08:57:06.949Z,54.09
2018-05-10T09:02:32.914Z,51.88
2018-05-10T09:05:10.066Z,52.91
2018-05-10T09:07:39.549Z,52.01
2018-05-10T09:10:17.054Z,51.83
2018-05-10T09:13:06.128Z,51.97
2018-05-10T09:15:34.761Z,52.57
2018-05-10T09:18:04.778Z,52.45
2018-05-10T09:20:32.384Z,51.81
2018-05-10T09:23:04.918Z,51.03
2018-05-10T09:25:34.764Z,50.16
2018-05-10T09:28:02.266Z,50.91
2018-05-10T09:30:30.425Z,49.64
2018-05-10T09:33:00.553Z,49.22
2018-05-10T09:35:28.157Z,49.57
2018-05-10T09:38:12.591Z,50.98
2018-05-10T09:40:40.105Z,50.32
2018-05-10T09:43:08.050Z,49.34
2018-05-10T09:45:39.600Z,50.11
2018-05-10T09:48:07.104Z,50.06
2018-05-10T09:50:34.697Z,48.69
2018-05-10T09:53:02.304Z,49.81
2018-05-10T09:55:37.493Z,49.03
2018-05-10T09:58:05.081Z,48.62
2018-05-10T10:00:34.006Z,46.31
2018-05-10T10:03:04.698Z,47.03
2018-05-10T10:05:36.034Z,47.83
2018-05-10T10:08:05.094Z,47.54
2018-05-10T10:13:08.473Z,47.01
2018-05-10T10:18:11.498Z,46.67
2018-05-10T10:20:40.460Z,46.29
2018-05-10T10:23:07.949Z,46.85
2018-05-10T10:25:41.573Z,46.69
2018-05-10T10:28:18.042Z,46.79
2018-05-10T10:30:49.657Z,46.68
2018-05-10T10:33:17.443Z,47.44
2018-05-10T10:35:52.662Z,48.62
2018-05-10T10:38:21.786Z,46.40
2018-05-10T10:40:49.951Z,47.51
2018-05-10T10:48:47.420Z,48.07
2018-05-10T10:51:18.577Z,45.58
2018-05-10T10:53:54.015Z,46.56
2018-05-10T10:56:25.740Z,47.29
2018-05-10T10:59:00.548Z,47.11
2018-05-10T11:01:42.943Z,47.22
2018-05-10T11:04:14.271Z,49.05
2018-05-10T11:09:34.350Z,45.43
2018-05-10T11:12:01.885Z,46.63
2018-05-10T11:14:29.372Z,49.25
2018-05-10T11:16:58.682Z,49.00
2018-05-10T11:19:26.232Z,46.42
2018-05-10T11:22:00.689Z,45.63
2018-05-10T11:24:29.855Z,45.23
2018-05-10T11:26:59.761Z,45.28
2018-05-10T11:56:47.169Z,45.26
2018-05-10T11:59:14.711Z,44.85
2018-05-10T12:01:45.065Z,43.19
2018-05-10T12:04:12.628Z,46.85
2018-05-10T12:06:40.268Z,41.58
2018-05-10T12:09:07.798Z,43.28
2018-05-10T12:11:35.359Z,40.95
2018-05-10T12:14:03.038Z,43.34
2018-05-10T12:16:31.332Z,43.54
2018-05-10T12:18:58.865Z,46.81
2018-05-10T12:21:26.423Z,45.21
2018-05-10T12:23:55.541Z,44.72
2018-05-10T12:26:23.128Z,45.06
2018-05-10T12:28:50.675Z,47.58
2018-05-10T12:31:18.270Z,44.78
2018-05-10T12:33:48.391Z,43.95
2018-05-10T12:36:15.942Z,44.54
2018-05-10T12:38:43.508Z,44.39
2018-05-10T12:41:11.044Z,45.06
2018-05-10T12:43:38.717Z,43.69
2018-05-10T12:46:06.247Z,43.67
2018-05-10T12:48:33.936Z,43.54
2018-05-10T12:54:04.620Z,44.59
2018-05-10T12:56:32.366Z,47.53
2018-05-10T12:58:59.984Z,50.72
2018-05-10T13:01:27.539Z,50.31
2018-05-10T13:03:55.224Z,46.19
2018-05-10T13:06:22.761Z,50.63
2018-05-10T13:08:50.350Z,47.53
2018-05-10T13:11:17.909Z,47.17
2018-05-10T13:13:45.676Z,46.99
2018-05-10T13:16:13.227Z,47.93
2018-05-10T13:18:40.786Z,45.20
2018-05-10T13:21:08.365Z,46.38
2018-05-10T13:23:35.904Z,47.41
2018-05-10T13:26:03.467Z,46.59
2018-05-10T13:28:31.004Z,45.48
2018-05-10T13:30:59.601Z,43.75
2018-05-10T13:33:29.346Z,47.00
2018-05-10T13:35:56.916Z,42.96
2018-05-10T13:38:24.529Z,44.26
2018-05-10T13:40:53.890Z,42.70
2018-05-10T13:43:21.441Z,44.01
2018-05-10T13:45:49.022Z,46.56
2018-05-10T13:48:18.196Z,48.57
2018-05-10T13:50:45.729Z,47.14
2018-05-10T13:53:13.377Z,45.73
2018-05-10T13:55:41.666Z,48.47
2018-05-10T13:58:09.222Z,42.88
2018-05-10T14:00:36.743Z,45.75
2018-05-10T14:03:04.380Z,42.10
2018-05-10T14:05:32.000Z,41.85
2018-05-10T14:07:59.601Z,43.41
2018-05-10T14:10:27.135Z,39.48
2018-05-10T14:12:54.667Z,39.62
2018-05-10T14:15:22.230Z,41.77
2018-05-10T14:17:49.917Z,42.69
2018-05-10T14:20:17.791Z,45.27
2018-05-10T14:22:45.316Z,42.67
2018-05-10T14:25:12.918Z,43.95
2018-05-10T14:27:40.463Z,48.12
2018-05-10T14:30:08.077Z,46.63
2018-05-10T14:32:36.560Z,44.93
2018-05-10T14:35:04.314Z,44.65
2018-05-10T14:37:31.857Z,48.23
2018-05-10T14:40:03.114Z,48.41
2018-05-10T14:42:30.941Z,49.01
2018-05-10T14:44:58.670Z,46.21
2018-05-10T14:47:26.640Z,46.50
2018-05-10T14:49:54.271Z,46.45
2018-05-10T14:52:22.015Z,45.53
2018-05-10T14:54:49.551Z,46.48
2018-05-10T14:57:17.188Z,46.29
2018-05-10T14:59:44.768Z,47.87
2018-05-10T15:02:12.759Z,48.42
2018-05-10T15:04:40.823Z,47.11
2018-05-10T15:07:09.427Z,47.36
2018-05-10T15:09:37.015Z,47.73
2018-05-10T15:12:04.869Z,47.85
2018-05-10T15:14:32.438Z,47.99
2018-05-10T15:16:59.986Z,48.54
2018-05-10T15:19:27.535Z,48.14
2018-05-10T15:21:57.773Z,47.37
2018-05-10T15:24:25.721Z,47.71
2018-05-10T15:26:55.131Z,47.84
2018-05-10T15:29:23.416Z,47.09
2018-05-10T15:31:53.730Z,48.79
2018-05-10T15:34:21.639Z,47.93
2018-05-10T15:36:49.457Z,49.66
2018-05-10T15:39:18.913Z,49.75
2018-05-10T15:41:47.920Z,49.52
2018-05-10T15:44:15.579Z,50.54
2018-05-10T15:46:43.150Z,48.99
2018-05-10T15:49:12.789Z,49.41
2018-05-10T15:51:40.421Z,49.17
2018-05-10T15:54:09.640Z,49.13
2018-05-10T15:56:37.203Z,49.75
2018-05-10T15:59:04.738Z,50.02
2018-05-10T16:01:32.275Z,49.05
2018-05-10T16:03:59.947Z,48.98
2018-05-10T16:06:27.530Z,49.75
2018-05-10T16:08:55.095Z,50.11
2018-05-10T16:11:22.774Z,50.62
2018-05-10T16:13:50.396Z,50.07
2018-05-10T16:16:17.931Z,49.38
2018-05-10T16:18:45.527Z,49.68
2018-05-10T16:21:13.062Z,51.21
2018-05-10T16:23:42.418Z,51.96
2018-05-10T16:26:09.969Z,51.55
2018-05-10T16:28:37.539Z,51.53
2018-05-10T16:31:05.812Z,52.12
2018-05-10T16:33:33.410Z,52.38
2018-05-10T16:36:01.220Z,52.69
2018-05-10T16:38:28.763Z,52.72
2018-05-10T16:40:56.456Z,53.10
2018-05-10T16:43:24.101Z,52.89
2018-05-10T16:45:51.650Z,54.13
2018-05-10T16:48:19.214Z,53.13
2018-05-10T16:50:50.574Z,53.07
2018-05-10T16:53:18.161Z,54.34
2018-05-10T16:55:45.754Z,54.45
2018-05-10T16:58:13.380Z,53.08
2018-05-10T17:00:41.140Z,52.83
2018-05-10T17:03:08.777Z,55.28
2018-05-10T17:05:36.382Z,53.64
2018-05-10T17:08:04.062Z,54.13
2018-05-10T17:10:32.324Z,55.50
2018-05-10T17:13:01.712Z,53.83
2018-05-10T17:15:30.055Z,54.31
2018-05-10T17:17:57.615Z,58.09
2018-05-10T17:20:25.161Z,55.72
2018-05-10T17:22:52.753Z,54.24
2018-05-10T17:25:20.451Z,54.46
2018-05-10T17:27:48.034Z,54.60
2018-05-10T17:30:15.731Z,56.17
2018-05-10T17:32:43.296Z,55.42
2018-05-10T17:35:10.818Z,56.89
2018-05-10T17:37:40.126Z,56.22
2018-05-10T17:40:07.710Z,56.10
2018-05-10T17:42:37.145Z,56.52
2018-05-10T17:45:06.059Z,56.60
2018-05-10T17:47:33.712Z,57.68
2018-05-10T17:50:01.618Z,57.28
2018-05-10T17:52:29.457Z,57.97
2018-05-10T17:54:57.109Z,58.24
2018-05-10T17:57:24.688Z,57.54
2018-05-10T17:59:52.210Z,57.76
2018-05-10T18:02:22.439Z,58.30
2018-05-10T18:04:50.003Z,58.74
2018-05-10T18:07:17.585Z,59.52
2018-05-10T18:09:46.501Z,60.92
2018-05-10T18:12:14.172Z,60.70
2018-05-10T18:14:41.856Z,62.87
2018-05-10T18:17:11.133Z,63.82
2018-05-10T18:19:38.720Z,66.18
2018-05-10T18:22:06.260Z,68.65
2018-05-10T18:24:34.653Z,70.18
2018-05-10T18:27:02.298Z,71.90
2018-05-10T18:29:29.857Z,71.80
2018-05-10T18:31:57.497Z,71.89
2018-05-10T18:36:52.931Z,73.73
2018-05-10T18:39:20.676Z,73.76
2018-05-10T18:41:50.016Z,74.39
2018-05-10T18:44:17.591Z,75.38
2018-05-10T18:46:45.201Z,74.95
2018-05-10T19:02:13.677Z,78.46
2018-05-10T19:04:41.716Z,78.34
2018-05-10T19:07:09.270Z,78.16
2018-05-10T19:09:37.632Z,78.33
2018-05-10T19:12:07.038Z,79.00
2018-05-10T19:14:34.571Z,78.35
2018-05-10T19:17:02.155Z,78.66
2018-05-10T19:19:29.715Z,78.18
2018-05-10T19:21:57.311Z,78.49
2018-05-10T19:24:25.503Z,78.81
2018-05-10T19:26:53.058Z,78.59
2018-05-10T19:29:20.609Z,78.52
2018-05-10T19:31:48.224Z,79.60
2018-05-10T19:34:18.353Z,79.64
2018-05-10T19:36:46.965Z,78.62
2018-05-10T19:39:14.539Z,78.43
2018-05-10T19:41:42.097Z,79.29
2018-05-10T19:44:09.719Z,78.84
2018-05-10T19:46:37.279Z,78.78
2018-05-10T19:49:05.382Z,78.58
2018-05-10T19:51:32.918Z,79.25
2018-05-10T19:54:00.479Z,79.52
2018-05-10T19:56:28.053Z,79.46
2018-05-10T19:58:55.623Z,78.87
2018-05-10T20:01:25.069Z,79.24
2018-05-10T20:03:54.801Z,79.43
2018-05-10T20:06:22.371Z,80.46
2018-05-10T20:08:49.927Z,80.38
2018-05-10T20:11:17.635Z,80.14
2018-05-10T20:13:45.267Z,80.08
2018-05-10T20:16:12.794Z,80.74
2018-05-10T20:18:40.424Z,80.99
2018-05-10T20:21:08.934Z,81.24
2018-05-10T20:23:36.459Z,80.75
2018-05-10T20:26:04.147Z,80.26
2018-05-10T20:28:32.756Z,79.48
2018-05-10T20:31:02.063Z,79.47
2018-05-10T20:33:29.703Z,78.98
2018-05-10T20:35:57.229Z,79.36
2018-05-10T20:38:24.774Z,79.40
2018-05-10T20:40:52.450Z,78.86
2018-05-10T20:43:20.000Z,78.75
2018-05-10T20:45:47.635Z,79.31
2018-05-10T20:48:15.145Z,79.13
2018-05-10T20:50:44.608Z,79.09
2018-05-10T20:53:12.114Z,78.73
2018-05-10T20:55:40.371Z,78.80
2018-05-10T20:58:08.021Z,79.14
2018-05-10T21:00:36.365Z,78.67
2018-05-10T21:03:03.927Z,79.02
2018-05-10T21:05:31.479Z,78.92
2018-05-10T21:07:59.067Z,78.62
2018-05-10T21:10:26.617Z,80.19
2018-05-10T21:12:56.399Z,79.11
2018-05-10T21:15:24.084Z,78.73
2018-05-10T21:17:51.689Z,79.43
2018-05-10T21:20:19.222Z,78.81
2018-05-10T21:22:46.905Z,79.33
2018-05-10T21:25:15.494Z,79.19
2018-05-10T21:27:43.161Z,78.92
2018-05-10T21:30:10.727Z,78.58
2018-05-10T21:32:38.305Z,78.94
2018-05-10T21:35:05.887Z,79.71
2018-05-10T21:37:35.030Z,79.48
2018-05-10T21:40:02.725Z,79.76
2018-05-10T21:42:30.253Z,80.59
2018-05-10T21:44:57.814Z,80.31
2018-05-10T21:47:25.358Z,80.47
2018-05-10T21:50:01.859Z,80.53
2018-05-10T21:52:29.513Z,80.73
2018-05-10T21:54:57.152Z,80.97
2018-05-10T21:57:24.701Z,80.45
2018-05-10T21:59:52.235Z,80.62
2018-05-10T22:02:20.770Z,80.73
2018-05-10T22:04:48.406Z,81.73
2018-05-10T22:07:15.959Z,80.35
2018-05-10T22:09:43.497Z,80.75
2018-05-10T22:12:11.157Z,80.57
2018-05-10T22:14:38.668Z,80.59
2018-05-10T22:17:06.245Z,80.69
2018-05-10T22:19:33.899Z,80.44
2018-05-10T22:22:02.481Z,81.04
2018-05-10T22:24:30.132Z,80.76
2018-05-10T22:26:58.888Z,80.89
2018-05-10T22:29:26.587Z,80.77
2018-05-10T22:31:54.113Z,80.37
2018-05-10T22:34:21.810Z,80.42
2018-05-10T22:36:49.471Z,80.03
2018-05-10T22:39:17.043Z,80.87
2018-05-10T22:41:44.571Z,80.46
2018-05-10T22:44:12.875Z,80.05
2018-05-10T22:46:40.651Z,80.02
2018-05-10T22:49:08.183Z,79.84
2018-05-10T22:51:37.469Z,79.48
2018-05-10T22:54:05.033Z,79.75
2018-05-10T22:56:32.591Z,79.76
2018-05-10T22:59:00.106Z,79.43
2018-05-10T23:01:28.698Z,79.27
2018-05-10T23:03:56.279Z,79.54
2018-05-10T23:06:23.859Z,80.21
2018-05-10T23:08:51.391Z,79.11
2018-05-10T23:11:18.961Z,78.73
2018-05-10T23:13:46.508Z,78.33
2018-05-10T23:16:14.205Z,78.75
2018-05-10T23:18:41.843Z,77.79
2018-05-10T23:21:09.507Z,78.49
2018-05-10T23:23:37.131Z,78.00
2018-05-10T23:26:04.769Z,77.85
2018-05-10T23:28:32.408Z,77.88
2018-05-10T23:30:59.935Z,78.09
2018-05-10T23:33:27.822Z,78.42
2018-05-10T23:35:59.270Z,77.69
2018-05-10T23:38:26.968Z,77.66
2018-05-10T23:40:54.490Z,77.84
2018-05-10T23:43:22.017Z,77.04
2018-05-10T23:45:49.651Z,77.12
2018-05-10T23:48:17.169Z,76.90
2018-05-10T23:50:45.491Z,76.94
2018-05-10T23:53:13.032Z,77.30
2018-05-10T23:55:40.599Z,77.00
2018-05-10T23:58:08.116Z,76.62
